VYYY Airport Information

Runway Information
Runway 03 Length 11200 ft width 200 ft
Elevation 109 ft Threshold 0 ft Heading 33
Runway 21 Length 11200 ft Width 200 ft
Elevation 65 ft Threshold 275 ft Heading 213
Airport Frequencies
Type APP Name MINGALADON Frequency 119.7 MHZ
Type ATIS Name ATIS Frequency 128.4 MHZ
Type GND Name MINGALADON Frequency 121.9 MHZ
Type TWR Name MINGALADON Frequency 118.1 MHZ
Airport Navaids
Type NDB Name Mingaladon Frequency 397 KHZ
Type NDB Name Yangon Frequency 265 KHZ
Airport Weather Information & NOTAM
ADDS - METARS form results

(1137 UTC 10 July 2020)
Data provider http://aviationweather.gov/metar/data/
 
METAR text: VYYY 101130Z 24003KT 7000 BKN015 FEW020CB BKN110 31/25 Q1005
Conditions at: VYYY (YANGON INTL MYAN, VN) observed 1130 UTC 10 July 2020
Temperature: 31.0°C (88°F)
Dewpoint: 25.0°C (77°F) [RH = 71%]
Pressure (altimeter): 29.68 inches Hg (1005.0 mb)
Winds: from the WSW (240 degrees) at 3 MPH (3 knots; 1.5 m/s)
Visibility: 4 miles ( 7 km)
Ceiling: 1500 feet AGL
Clouds: broken clouds at 1500 feet AGL
few clouds at 2000 feet AGL
broken clouds at 11000 feet AGL
Weather: no significant weather observed at this time

METAR text: VYYY 101100Z 23004KT 7000 BKN015 FEW020CB BKN110 32/25 Q1005
Conditions at: VYYY (YANGON INTL MYAN, VN) observed 1100 UTC 10 July 2020
Temperature: 32.0°C (90°F)
Dewpoint: 25.0°C (77°F) [RH = 67%]
Pressure (altimeter): 29.68 inches Hg (1005.0 mb)
Winds: from the SW (230 degrees) at 5 MPH (4 knots; 2.1 m/s)
Visibility: 4 miles ( 7 km)
Ceiling: 1500 feet AGL
Clouds: broken clouds at 1500 feet AGL
few clouds at 2000 feet AGL
broken clouds at 11000 feet AGL
Weather: no significant weather observed at this time

Forecast for: VYYY (YANGON INTL MYAN, VN)
Text: TAF VYYY 101100Z 1012/1112 24008KT 7000 BKN020 FEW025CB BKN100
Forecast period: 1200 to 1400 UTC 10 July 2020
Forecast type: FROM: standard forecast or significant change
Winds: from the WSW (240 degrees) at 9 MPH (8 knots; 4.1 m/s)
Visibility: 4 miles (7 km)
Ceiling: 2000 feet AGL
Clouds: broken clouds at 2000 feet AGL
few clouds at 2500 feet AGL
broken clouds at 10000 feet AGL
Weather: no significant weather forecast for this period
Text: BECMG 1014/1017 16010KT 5000 -RA
Forecast period: 1400 UTC 10 July 2020 to 1200 UTC 11 July 2020
Forecast type: BECOMING: Conditions expected to become as follows by 1700 UTC 10 July 2020
Winds: from the SSE (160 degrees) at 12 MPH (10 knots; 5.1 m/s)
Visibility: 3 miles (5 km)
Ceiling: 2000 feet AGL
Clouds: broken clouds at 2000 feet AGL
few clouds at 2500 feet AGL
broken clouds at 10000 feet AGL
Weather: -RA  (light rain)
Text: TEMPO 1102/1208 24010KT 160V260 4000 -RA
Forecast period: 0200 UTC 11 July 2020 to 0800 UTC 12 July 2020
Forecast type: TEMPORARY: The following changes expected for less than half the time period
Winds: from the WSW (240 degrees) at 12 MPH (10 knots; 5.1 m/s)
Visibility: 2.49 miles (4.01 km)
Ceiling: unknown
Clouds: missing
Weather: -RA  (light rain)